• Join FlightAware (Why Join?)
  • Login
  • US Flag 
08:23PM EST


 

Airport Tracker/Info


-or-


 

Live Flight TrackerFlight Track Log ✈ N502QS ✈ 29-Jun-2013 ✈ KHPN - KSJC

Flight Track Log - Related Links

Times and Time Zones

All times are in EDT time to prevent confusion due to time zone crossing. See the N502QS flight status page for this flight to view local times or setup timezone preferences in your user account.

Time Position Orientation Groundspeed Altitude Reporting Facility
EDT Latitude Longitude Course Direction KTS MPH feet Rate Location/Type
08:36AM 41.0500 -73.7000 236° Southwest 194 223 1,300  Level New York TRACON
08:37AM 41.0333 -73.7333 236° Southwest 204 235 4,600 3,000 Climbing New York TRACON
08:38AM 41.0667 -73.8000 304° West 251 289 7,400 3,180 Climbing New York TRACON
08:39AM 41.1167 -73.8667 315° West 285 328 11,000 2,520 Climbing New York TRACON
08:40AM 41.1528 -73.9236 310° West 311 358 11,800 2,040 Climbing New York Center
08:41AM 41.2225 -74.0397 309° West 356 410 14,600 2,580 Climbing New York Center
08:42AM 41.2822 -74.1450 307° West 387 445 17,100 2,520 Climbing New York Center
08:43AM 41.3658 -74.2736 311° West 407 468 19,700 2,520 Climbing New York Center
08:44AM 41.4328 -74.4042 304° West 419 482 22,200 2,520 Climbing New York Center
08:45AM 41.4969 -74.5461 301° West 433 498 24,700 2,400 Climbing New York Center
08:46AM 41.5444 -74.6819 295° West 445 512 27,000 2,040 Climbing New York Center
08:47AM 41.6103 -74.8300 301° West 457 526 28,900 1,560 Climbing New York Center
08:48AM 41.6778 -74.9869 300° West 472 543 30,200 1,800 Climbing New York Center
08:49AM 41.7431 -75.1411 300° West 477 549 32,600 2,220 Climbing New York Center
08:50AM 41.8081 -75.2928 300° West 477 549 34,700 2,220 Climbing New York Center
08:51AM 41.8728 -75.4475 299° West 477 549 37,000 1,800 Climbing New York Center
08:52AM 41.9375 -75.6000 300° West 477 549 38,400 1,260 Climbing New York Center
08:53AM 41.9981 -75.7494 299° West 477 549 39,600 1,080 Climbing New York Center
08:56AM 42.1883 -76.2306 298° West 465 535 42,900 780 Climbing Cleveland Center
08:57AM 42.2358 -76.3900 292° West 465 535 42,900  Level Cleveland Center
08:58AM 42.2897 -76.5522 294° West 465 535 42,900  Level Cleveland Center
08:59AM 42.3411 -76.7175 293° West 470 541 42,900  Level Cleveland Center
09:00AM 42.3947 -76.8828 294° West 470 541 42,900  Level Cleveland Center
09:01AM 42.4456 -77.0461 293° West 470 541 42,900  Level Cleveland Center
09:02AM 42.4964 -77.2094 293° West 470 541 42,900  Level Cleveland Center
09:03AM 42.5469 -77.3731 293° West 470 541 42,900  Level Cleveland Center
09:04AM 42.5975 -77.5453 292° West 475 547 42,900  Level Cleveland Center
09:05AM 42.6494 -77.7094 293° West 475 547 42,900  Level Cleveland Center
09:06AM 42.7061 -77.8933 293° West 475 547 42,900  Level Cleveland Center
09:07AM 42.7556 -78.0553 293° West 480 552 42,900  Level Cleveland Center
09:08AM 42.8050 -78.2231 292° West 480 552 42,900  Level Cleveland Center
09:09AM 42.8542 -78.3911 292° West 480 552 42,900  Level Cleveland Center
09:10AM 42.8967 -78.5428 291° West 480 552 42,900  Level Cleveland Center
09:11AM 42.9369 -78.7117 288° West 480 552 43,000  Climbing Cleveland Center
09:12AM 42.9333 -78.9000 269° West 470 541 43,000  Level Toronto Center
09:13AM 42.9500 -79.0833 277° West 470 541 43,000  Level Toronto Center
09:14AM 42.9500 -79.2667 270° West 470 541 43,000  Level Toronto Center
09:15AM 42.9667 -79.4500 277° West 470 541 43,000  Level Toronto Center
09:16AM 42.9667 -79.6167 270° West 470 541 43,000  Level Toronto Center
09:17AM 42.9833 -79.8000 277° West 480 552 43,000  Level Toronto Center
09:18AM 42.9833 -79.9667 270° West 480 552 43,000  Level Toronto Center
09:19AM 43.0000 -80.1500 277° West 480 552 43,000  Level Toronto Center
09:20AM 43.0000 -80.3333 270° West 480 552 43,000  Level Toronto Center
09:21AM 43.0167 -80.5167 277° West 480 552 43,000  Level Toronto Center
09:22AM 43.0167 -80.7000 270° West 470 541 43,000  Level Toronto Center
09:23AM 43.0167 -80.8833 270° West 470 541 43,000  Level Toronto Center
09:24AM 43.0167 -81.0667 270° West 480 552 43,000  Level Toronto Center
09:25AM 43.0333 -81.2500 277° West 480 552 43,000  Level Toronto Center
09:26AM 43.0667 -81.4333 284° West 480 552 43,000  Level Toronto Center
09:27AM 43.1000 -81.6000 285° West 480 552 43,000  Level Toronto Center
09:28AM 43.1167 -81.7833 277° West 480 552 43,000  Level Toronto Center
09:29AM 43.1333 -81.9667 277° West 480 552 43,000  Level Toronto Center
09:30AM 43.1667 -82.1500 284° West 480 552 43,000  Level Toronto Center
09:31AM 43.2000 -82.3333 284° West 480 552 43,000  Level Toronto Center
09:32AM 43.2167 -82.5167 277° West 480 552 43,000  Level Toronto Center
09:33AM 43.2333 -82.6833 278° West 480 552 43,000  Level Toronto Center
09:34AM 43.2500 -82.8667 277° West 480 552 43,000  Level Toronto Center
09:35AM 43.2500 -83.0500 270° West 480 552 43,000  Level Toronto Center
09:36AM 43.2333 -83.2333 263° West 480 552 43,000  Level Toronto Center
09:37AM 43.2333 -83.4167 270° West 480 552 43,000  Level Toronto Center
09:38AM 43.2333 -83.6000 270° West 480 552 43,000  Level Toronto Center
09:39AM 43.2333 -83.8000 270° West 480 552 43,000  Level Toronto Center
09:40AM 43.2333 -83.9667 270° West 480 552 43,000  Level Toronto Center
09:41AM 43.2333 -84.1333 270° West 480 552 43,000  Level Toronto Center
09:42AM 43.2333 -84.3333 270° West 480 552 43,000  Level Toronto Center
09:43AM 43.2333 -84.5000 270° West 490 564 43,000  Level Toronto Center
09:44AM 43.2167 -84.6833 263° West 470 541 43,000  Level Toronto Center
09:45AM 43.2333 -84.8667 277° West 480 552 43,000  Level Toronto Center
09:46AM 43.2167 -85.0500 263° West 460 529 43,000  Level Toronto Center
09:47AM 43.2167 -85.2333 270° West 480 552 43,000  Level Toronto Center
09:48AM 43.2167 -85.4167 270° West 470 541 43,000  Level Toronto Center
09:49AM 43.2000 -85.6000 263° West 470 541 43,000  Level Toronto Center
09:50AM 43.2000 -85.7833 270° West 480 552 43,000  Level Toronto Center
09:51AM 43.1833 -85.9500 262° West 470 541 43,000  Level Toronto Center
09:52AM 43.2019 -86.1967 276° West 478 550 43,000  Level Chicago Center
09:54AM 43.1967 -86.3775 268° West 481 554 43,000  Level Chicago Center
09:55AM 43.1903 -86.5536 267° West 475 547 43,000  Level Chicago Center
09:56AM 43.1831 -86.7714 267° West 480 552 43,000  Level Chicago Center
09:57AM 43.1753 -86.9503 267° West 477 549 43,000  Level Chicago Center
09:58AM 43.1683 -87.1300 267° West 477 549 43,000  Level Chicago Center
09:59AM 43.1597 -87.3119 266° West 482 555 43,000  Level Chicago Center
10:00AM 43.1522 -87.5142 267° West 471 542 43,000  Level Chicago Center
10:01AM 43.1436 -87.6983 266° West 479 551 43,000  Level Chicago Center
10:02AM 43.1353 -87.8814 266° West 479 551 43,000  Level Chicago Center
10:03AM 43.1264 -88.0650 266° West 481 554 43,000  Level Chicago Center
10:04AM 43.1172 -88.2475 266° West 476 548 43,000  Level Chicago Center
10:05AM 43.1178 -88.4333 270° West 482 555 43,000  Level Chicago Center
10:06AM 43.1206 -88.6206 271° West 486 559 43,000  Level Chicago Center
10:07AM 43.1239 -88.8064 271° West 484 557 43,000  Level Chicago Center
10:08AM 43.1261 -88.9903 271° West 481 554 43,000  Level Chicago Center
10:09AM 43.1281 -89.2031 271° West 478 550 43,000  Level Chicago Center
10:10AM 43.1294 -89.3869 271° West 481 554 43,000  Level Chicago Center
10:11AM 43.1311 -89.5706 271° West 482 555 43,000  Level Chicago Center
10:12AM 43.1317 -89.7550 270° West 483 556 43,000  Level Chicago Center
10:13AM 43.1314 -89.9372 270° West 479 551 43,000  Level Chicago Center
10:14AM 43.1331 -90.1219 271° West 484 557 43,000  Level Chicago Center
10:15AM 43.1333 -90.3303 270° West 488 562 43,000  Level Chicago Center
10:16AM 43.1347 -90.5133 271° West 487 560 43,000  Level Chicago Center
10:17AM 43.1339 -90.6950 270° West 484 557 43,000  Level Chicago Center
10:18AM 43.1333 -90.8764 270° West 483 556 43,000  Level Chicago Center
10:19AM 43.1325 -91.0575 270° West 483 556 43,000  Level Chicago Center
10:20AM 43.1308 -91.2772 269° West 486 559 43,000  Level Chicago Center
10:21AM 43.1286 -91.4572 269° West 485 558 43,000  Level Chicago Center
10:22AM 43.1267 -91.6389 269° West 487 560 43,000  Level Chicago Center
10:23AM 43.1250 -91.8203 269° West 487 560 43,000  Level Chicago Center
10:24AM 43.1206 -92.0372 268° West 485 558 43,000  Level Chicago Center
10:25AM 43.1175 -92.2181 269° West 484 557 43,000  Level Chicago Center
10:26AM 43.1142 -92.3978 269° West 482 555 43,000  Level Chicago Center
10:27AM 43.1114 -92.5781 269° West 480 552 43,000  Level Chicago Center
10:29AM 43.1072 -92.7622 268° West 482 555 43,000  Level Chicago Center
10:30AM 43.1014 -92.9772 268° West 488 562 43,000  Level Chicago Center
10:31AM 43.0981 -93.1558 269° West 479 551 43,000  Level Chicago Center
10:32AM 43.0919 -93.3386 267° West 483 556 43,000  Level Chicago Center
10:33AM 43.0764 -93.5183 263° West 482 555 43,000  Level Chicago Center
10:34AM 43.0597 -93.6969 263° West 480 552 43,000  Level Chicago Center
10:35AM 43.0375 -93.9125 262° West 482 555 43,000  Level Chicago Center
10:36AM 43.0211 -94.0875 263° West 475 547 43,000  Level Chicago Center
10:37AM 42.9969 -94.3372 263° West 477 549 43,000  Level Minneapolis Center
10:38AM 42.9772 -94.5167 262° West 480 552 43,000  Level Minneapolis Center
10:39AM 42.9639 -94.6669 263° West 475 547 43,000  Level Minneapolis Center
10:40AM 42.9408 -94.8814 262° West 474 545 43,000  Level Minneapolis Center
10:41AM 42.9211 -95.0619 262° West 479 551 43,000  Level Minneapolis Center
10:42AM 42.9025 -95.2392 262° West 476 548 43,000  Level Minneapolis Center
10:43AM 42.8831 -95.4172 262° West 476 548 43,000  Level Minneapolis Center
10:44AM 42.8586 -95.6300 261° West 474 545 43,000  Level Minneapolis Center
10:45AM 42.8389 -95.8072 261° West 474 545 43,000  Level Minneapolis Center
10:46AM 42.8183 -95.9853 261° West 474 545 43,000  Level Minneapolis Center
10:47AM 42.7981 -96.1581 261° West 466 536 43,000  Level Minneapolis Center
10:48AM 42.7772 -96.3331 261° West 466 536 43,000  Level Minneapolis Center
10:49AM 42.7561 -96.5086 261° West 470 541 43,000  Level Minneapolis Center
10:51AM 42.7344 -96.6850 261° West 472 543 43,000  Level Minneapolis Center
10:52AM 42.7089 -96.8944 261° West 469 540 43,000  Level Minneapolis Center
10:53AM 42.6867 -97.0700 260° West 471 542 43,000  Level Minneapolis Center
10:54AM 42.6653 -97.2400 260° West 477 549 43,000  Level Minneapolis Center
10:55AM 42.6428 -97.4111 260° West 467 537 43,000  Level Minneapolis Center
10:56AM 42.6161 -97.6169 260° West 462 532 43,000  Level Minneapolis Center
10:57AM 42.5883 -97.8258 260° West 470 541 43,000 -60 Level Minneapolis Center
10:58AM 42.5669 -97.9856 260° West 471 542 42,900  Descending Minneapolis Center
10:59AM 42.5450 -98.1522 260° West 456 525 43,000  Climbing Minneapolis Center
11:00AM 42.5175 -98.3528 260° West 453 521 43,000  Level Minneapolis Center
11:01AM 42.4939 -98.5239 259° West 461 531 43,000  Level Minneapolis Center
11:02AM 42.4747 -98.6592 259° West 460 529 43,000  Level Minneapolis Center
11:03AM 42.4394 -98.8606 257° West 461 531 43,000  Level Minneapolis Center
11:04AM 42.4100 -99.0267 257° West 457 526 43,000  Level Minneapolis Center
11:05AM 42.3803 -99.1889 256° West 448 516 43,000  Level Minneapolis Center
11:06AM 42.3444 -99.3864 256° West 452 520 43,000  Level Minneapolis Center
11:07AM 42.3200 -99.5181 256° West 452 520 43,000  Level Denver Center
11:08AM 42.2864 -99.6983 256° West 458 527 43,000  Level Denver Center
11:09AM 42.2581 -99.8531 256° West 449 517 43,000  Level Denver Center
11:10AM 42.2225 -100.0308 255° West 442 509 43,000  Level Denver Center
11:11AM 42.1933 -100.1869 256° West 445 512 43,000  Level Denver Center
11:12AM 42.1589 -100.3739 256° West 458 527 43,000  Level Denver Center
11:13AM 42.1272 -100.5319 255° West 459 528 43,000  Level Denver Center
11:14AM 42.0917 -100.7178 256° West 461 531 43,000  Level Denver Center
11:15AM 42.0589 -100.8781 255° West 464 534 43,000  Level Denver Center
11:16AM 42.0219 -101.0661 255° West 467 537 43,000  Level Denver Center
11:17AM 41.9906 -101.2256 255° West 464 534 43,000  Level Denver Center
11:18AM 41.9519 -101.4119 254° West 466 536 43,000  Level Denver Center
11:20AM 41.9208 -101.5708 255° West 463 533 43,000  Level Denver Center
11:21AM 41.8822 -101.7569 254° West 466 536 43,000  Level Denver Center
11:22AM 41.8469 -101.9192 254° West 472 543 43,000  Level Denver Center
11:23AM 41.8089 -102.1072 255° West 471 542 43,000  Level Denver Center
11:24AM 41.7767 -102.2594 254° West 469 540 43,000  Level Denver Center
11:25AM 41.7344 -102.4553 254° West 470 541 43,000  Level Denver Center
11:26AM 41.7008 -102.6100 254° West 474 545 43,000  Level Denver Center
11:27AM 41.6600 -102.7967 254° West 470 541 43,000  Level Denver Center
11:28AM 41.6258 -102.9578 254° West 471 542 43,000  Level Denver Center
11:29AM 41.5825 -103.1425 253° West 467 537 43,000  Level Denver Center
11:30AM 41.5492 -103.2989 254° West 460 529 43,000  Level Denver Center
11:31AM 41.5089 -103.4831 254° West 465 535 43,000  Level Denver Center
11:32AM 41.4719 -103.6439 253° West 471 542 43,000  Level Denver Center
11:33AM 41.4294 -103.8306 253° West 472 543 43,000  Level Denver Center
11:34AM 41.3936 -103.9886 253° West 469 540 43,000  Level Denver Center
11:35AM 41.3569 -104.1472 253° West 467 537 43,000  Level Denver Center
11:36AM 41.3136 -104.3325 253° West 469 540 43,000  Level Denver Center
11:37AM 41.2772 -104.4900 253° West 466 536 43,000  Level Denver Center
11:38AM 41.2331 -104.6775 253° West 472 543 43,000  Level Denver Center
11:39AM 41.1989 -104.8386 254° West 473 544 43,000  Level Denver Center
11:40AM 41.1656 -105.0269 257° West 470 541 43,000  Level Denver Center
11:41AM 41.1378 -105.1919 257° West 475 547 43,000  Level Denver Center
11:42AM 41.1039 -105.3808 257° West 472 543 43,000  Level Denver Center
11:43AM 41.0750 -105.5419 257° West 469 540 43,000  Level Denver Center
11:44AM 41.0417 -105.7292 257° West 468 539 43,000  Level Denver Center
11:45AM 41.0153 -105.8725 256° West 465 535 43,000  Level Denver Center
11:46AM 40.9781 -106.0708 256° West 467 537 43,000  Level Denver Center
11:47AM 40.9506 -106.2194 256° West 460 529 43,000  Level Denver Center
11:48AM 40.9164 -106.3997 256° West 452 520 43,000  Level Denver Center
11:50AM 40.8886 -106.5531 257° West 449 517 43,000  Level Denver Center
11:51AM 40.8539 -106.7350 256° West 456 525 43,000  Level Denver Center
11:52AM 40.8244 -106.8919 256° West 460 529 43,000  Level Denver Center
11:53AM 40.7894 -107.0753 256° West 461 531 43,000  Level Denver Center
11:54AM 40.7583 -107.2347 256° West 467 537 43,000  Level Denver Center
11:55AM 40.7256 -107.3994 255° West 460 529 43,000  Level Denver Center
11:56AM 40.6853 -107.5792 254° West 458 527 43,000  Level Denver Center
11:57AM 40.6358 -107.7306 247° West 468 539 43,000  Level Denver Center
11:58AM 40.5792 -107.9119 248° West 479 551 43,000  Level Denver Center
11:59AM 40.5292 -108.0672 247° West 483 556 43,000  Level Denver Center
12:00PM 40.4700 -108.2472 247° West 482 555 43,000  Level Denver Center
12:01PM 40.4203 -108.4019 247° West 480 552 43,000  Level Denver Center
12:02PM 40.3622 -108.5814 247° West 480 552 43,000  Level Denver Center
12:03PM 40.3117 -108.7356 247° West 483 556 43,000  Level Denver Center
12:04PM 40.2522 -108.9150 247° West 482 555 43,000  Level Denver Center
12:05PM 40.2022 -109.0678 247° West 481 554 43,000  Level Denver Center
12:06PM 40.1433 -109.2436 246° West 477 549 43,000  Level Denver Center
12:07PM 40.0919 -109.3958 246° West 479 551 43,000  Level Denver Center
12:08PM 40.0489 -109.5836 253° West 486 559 43,000  Level Denver Center
12:09PM 40.0156 -109.7431 255° West 481 554 43,000  Level Denver Center
12:10PM 39.9764 -109.9300 255° West 480 552 43,000  Level Denver Center
12:11PM 39.9431 -110.0903 255° West 479 551 43,000  Level Denver Center
12:12PM 39.9075 -110.2483 254° West 477 549 43,000  Level Denver Center
12:13PM 39.8686 -110.4333 255° West 475 547 43,000  Level Denver Center
12:14PM 39.8339 -110.5933 254° West 479 551 43,000  Level Denver Center
12:15PM 39.7925 -110.7783 254° West 478 550 43,000  Level Denver Center
12:17PM 39.7483 -110.9872 255° West 472 543 43,000  Level Salt Lake Center
12:18PM 39.7067 -111.1714 254° West 476 548 43,000  Level Salt Lake Center
12:19PM 39.6656 -111.3453 253° West 480 552 43,000  Level Salt Lake Center
12:20PM 39.6272 -111.5122 253° West 482 555 43,000  Level Salt Lake Center
12:21PM 39.5897 -111.6778 254° West 479 551 43,000  Level Salt Lake Center
12:22PM 39.5531 -111.8450 254° West 481 554 43,000  Level Salt Lake Center
12:23PM 39.5142 -112.0097 253° West 479 551 43,000  Level Salt Lake Center
12:24PM 39.4758 -112.1750 253° West 480 552 43,000  Level Salt Lake Center
12:25PM 39.4300 -112.3739 253° West 483 556 43,000  Level Salt Lake Center
12:26PM 39.3931 -112.5381 254° West 478 550 43,000  Level Salt Lake Center
12:27PM 39.3536 -112.6942 252° West 472 543 43,000  Level Salt Lake Center
12:28PM 39.3136 -112.8558 252° West 474 545 43,000  Level Salt Lake Center
12:29PM 39.2744 -113.0194 253° West 479 551 43,000  Level Salt Lake Center
12:30PM 39.2267 -113.2161 253° West 481 554 43,000  Level Salt Lake Center
12:31PM 39.1867 -113.3800 253° West 481 554 43,000  Level Salt Lake Center
12:32PM 39.1469 -113.5419 252° West 477 549 43,000  Level Salt Lake Center
12:33PM 39.1058 -113.7047 252° West 479 551 43,000  Level Salt Lake Center
12:34PM 39.0642 -113.8686 252° West 482 555 43,000  Level Salt Lake Center
12:35PM 39.0247 -114.0311 253° West 480 552 43,000  Level Salt Lake Center
12:36PM 38.9750 -114.2258 252° West 481 554 43,000  Level Salt Lake Center
12:37PM 38.9336 -114.3869 252° West 479 551 43,000  Level Salt Lake Center
12:38PM 38.8906 -114.5492 251° West 481 554 43,000  Level Salt Lake Center
12:39PM 38.8486 -114.7128 252° West 484 557 43,000  Level Salt Lake Center
12:41PM 38.8072 -114.8758 252° West 484 557 43,000  Level Salt Lake Center
12:42PM 38.7542 -115.0711 251° West 485 558 43,000  Level Salt Lake Center
12:43PM 38.7094 -115.2344 251° West 487 560 43,000  Level Salt Lake Center
12:44PM 38.6669 -115.3947 251° West 482 555 43,000  Level Salt Lake Center
12:45PM 38.6244 -115.5556 251° West 478 550 43,000  Level Salt Lake Center
12:46PM 38.5811 -115.7169 251° West 480 552 43,000  Level Salt Lake Center
12:47PM 38.5383 -115.8789 251° West 481 554 43,000  Level Salt Lake Center
12:48PM 38.4944 -116.0400 251° West 482 555 43,000  Level Salt Lake Center
12:49PM 38.4394 -116.2328 250° West 481 554 43,000  Level Salt Lake Center
12:50PM 38.3958 -116.3917 251° West 477 549 43,000  Level Salt Lake Center
12:51PM 38.3525 -116.5494 251° West 474 545 43,000  Level Salt Lake Center
12:52PM 38.3075 -116.7089 250° West 476 548 43,000  Level Salt Lake Center
12:53PM 38.2642 -116.8656 251° West 473 544 43,000  Level Salt Lake Center
12:54PM 38.2194 -117.0214 250° West 471 542 43,000  Level Salt Lake Center
12:55PM 38.1400 -117.2042 241° Southwest 488 562 43,000  Level Oakland Center
12:56PM 38.0672 -117.3631 240° Southwest 484 557 43,000  Level Oakland Center
12:57PM 38.0003 -117.5064 239° Southwest 476 548 43,000 -600 Level Oakland Center
12:58PM 37.9336 -117.6472 239° Southwest 469 540 41,800 -1,200 Descending Oakland Center
12:59PM 37.8700 -117.7825 239° Southwest 451 519 40,600 -1,200 Descending Oakland Center
01:00PM 37.8025 -117.9233 239° Southwest 464 534 39,400 -1,200 Descending Oakland Center
01:01PM 37.7361 -118.0656 239° Southwest 470 541 38,200 -1,380 Descending Oakland Center
01:02PM 37.6553 -118.2361 239° Southwest 472 543 36,700 -1,380 Descending Oakland Center
01:03PM 37.5853 -118.3794 238° Southwest 478 550 35,400 -1,320 Descending Oakland Center
01:04PM 37.5164 -118.5258 239° Southwest 483 556 34,100 -1,320 Descending Oakland Center
01:05PM 37.4456 -118.6714 239° Southwest 487 560 32,800 -1,320 Descending Oakland Center
01:06PM 37.3906 -118.8133 244° Southwest 484 557 31,500 -1,260 Descending Oakland Center
01:07PM 37.3706 -118.9747 261° West 474 545 30,300 -1,140 Descending Oakland Center
01:08PM 37.3522 -119.1672 263° West 464 534 29,200 -1,200 Descending Oakland Center
01:09PM 37.3344 -119.3247 262° West 459 528 27,900 -1,320 Descending Oakland Center
01:10PM 37.3194 -119.4797 263° West 449 517 26,600 -1,320 Descending Oakland Center
01:12PM 37.3042 -119.6322 263° West 442 509 25,300 -1,260 Descending Oakland Center
01:13PM 37.2872 -119.7817 262° West 437 503 24,100 -1,320 Descending Oakland Center
01:14PM 37.2719 -119.9228 262° West 432 497 22,600 -1,860 Descending Oakland Center
01:15PM 37.2536 -120.0931 262° West 417 480 20,400 -1,920 Descending Oakland Center
01:16PM 37.2392 -120.2322 263° West 408 470 18,700 -1,680 Descending Oakland Center
01:17PM 37.2225 -120.3711 261° West 404 465 17,000 -1,680 Descending Oakland Center
01:18PM 37.1981 -120.5019 257° West 387 445 15,300 -1,620 Descending Oakland Center
01:19PM 37.1708 -120.6283 255° West 377 434 13,700 -1,620 Descending Oakland Center
01:20PM 37.1447 -120.7503 255° West 363 418 12,100 -1,080 Descending Oakland Center
01:21PM 37.1186 -120.8686 255° West 352 405 11,500 -900 Descending Oakland Center
01:22PM 37.0936 -120.9881 255° West 351 404 10,300 -780 Descending Oakland Center
01:23PM 37.0853 -121.1114 265° West 355 409 10,000 -180 Descending Oakland Center
01:24PM 37.0711 -121.2553 263° West 352 405 10,000 -300 Level Oakland Center
01:25PM 37.0611 -121.3717 264° West 346 398 9,400 -840 Descending Oakland Center
01:26PM 37.0581 -121.4717 268° West 306 352 8,300 -1,380 Descending Oakland Center
01:27PM 37.1000 -121.5631 300° West 299 344 6,600 -1,260 Descending Oakland Center
01:28PM 37.1336 -121.6397 299° West 277 319 5,800 -960 Descending Oakland Center
01:29PM 37.1661 -121.7108 300° West 257 296 4,700 -1,140 Descending Oakland Center
01:30PM 37.2061 -121.7711 310° West 240 276 3,600 -1,080 Descending Oakland Center
01:31PM 37.2531 -121.8128 325° Northwest 219 252 2,600 -1,080 Descending Oakland Center
01:32PM 37.2989 -121.8603 321° Northwest 192 221 1,400 -960 Descending Oakland Center
01:33PM 37.3281 -121.8944 317° Northwest 161 185 700 -660 Descending Oakland Center
01:34PM 37.3544 -121.9225 320° Northwest 134 154 100 -600 Descending Oakland Center
01:36PM 37.3500 -121.9167 North  Level FlightAware Approximate